Evadale, TX

9:06 AM CST on March 03, 2015 (GMT -0600)
Jasper County-Bell | Change Station
CLOSE
Current Station
Airport
Location: Jasper,
Elevation: 213 ft
Nearby Weather Stations
Active Advisory: Dense Fog Advisory

Elev 213 ft 30.89 °N, 94.03 °W | Updated 11 minutes ago

Fog
Fog
54 °F
Feels Like 54 °F
N
0
Wind Variable Wind from North

Today
High -- | Low -- °F
--% Chance of Precip.
Yesterday
High -- | Low -- °F
Precip. -- in
6:40 AM 6:16 PM
Waxing Gibbous, 96% visible
Pressure 30.09 in
Visibility 0.5 miles
Clouds Overcast 200 ft
Dew Point 54 °F
Humidity 99%
Rainfall 0.00 in
Snow Depth Not available.
UV 1 out of 12
Pollen 9.10 out of 12
Air Quality Not available.
Flu Activity Not available.
METAR KJAS 031455Z AUTO 00000KT 1/2SM FG OVC002 12/12 A3009 RMK AO2 T01230121

More Conditions Fewer Conditions

Pressure 30.09 in
Visibility 0.5 miles
Clouds Overcast 200 ft
Dew Point 54 °F
Humidity 99%
Rainfall 0.00 in
Snow Depth Not available.
UV 1 out of 12
Pollen 9.10 out of 12
Air Quality Not available.
Flu Activity Not available.
METAR KJAS 031455Z AUTO 00000KT 1/2SM FG OVC002 12/12 A3009 RMK AO2 T01230121

More Conditions Fewer Conditions

10-Day Weather Forecast

Almanac

Astronomy

Mar. 03, 2015 Rise Set
Actual Time
Civil Twilight
Nautical Twilight
Astronomical Twilight
Moon
Length of Visible Light
Length of Day
Tomorrow will be .
, % of the Moon is Illuminated

Today's Extremes

State Highs State Lows

Community

WunderPhotos

Upload Photos

1,802,133 photos uploaded!

WunderBlogs® & News

Nearby

Air Quality

  Air Quality AQ Index Pollutant
Not available.

Snow Depth

Station Depth Elevation

Earthquake Activity

City Distance Mag. Time & Date
Minimum magnitude displayed is 2.5.

Coastal Water Temperatures

Place Temperature

Nearby Weather Stations

Dense Fog Advisory
Statement as of 7:57 AM CST on March 03, 2015

... Dense fog advisory remains in effect until 10 am CST this
morning...

* visibility... one quarter of a mile or less at times.

* Impacts... reduced visibilities making for hazardous driving
conditions... especially when visibilities change quickly over
a short distance.

Precautionary/preparedness actions...

A dense fog advisory means visibilities will frequently be
reduced to less than one quarter mile. If driving... slow down...
use your headlights... and leave plenty of distance ahead of you.